Archival Weather

Heathrow

Heathrow, United Kingdom (EGLL)

Report from: Thursday, June 23, 2022 7:50 PM BST
Current time: Tuesday, August 16, 2022 8:58 AM BST

Current weather
Weather history
Weather forecast

Temperature23.0°C (73.4°F)
Dew point15.0°C (59.0°F)
Winds 9 kts (4.6 m/s, 10.4 mph) Southwest (220°)
Visibility6.2 mi. (10 km)
Clouds Sky clear
Altimeter29.74 in.Hg (1007 mB)
Relative humidity61 %
Density altitude1,377 ft. (420 m)
Remarks Fully automated report
No clouds detected
No significant changes expected in the next two hours
Flight conditions Visual Meteorological Conditions
Raw dataEGLL 231850Z AUTO 22009KT 9999 NCD 23/15 Q1007 NOSIG
An error has occurred. This application may no longer respond until reloaded. Reload 🗙